Station: Mackay  

  Atmospheric Gas Attenuation - ITU Rec 676-11   ----------------- dB/100km -----------------
Date Time Temp RH % AH g/m3 Dew Point Wind Direction Speed kph Gust kph Barometer mB Rainfall Since 9am 24GHz 47GHz 76GHz 122GHz 134GHz 241GHz
08/05 07:00 19.8 55 9.39 10.5 22 37 1017.9 0 21.0 25.6 40.1 105.3 101.3 349.3
08/05 06:50 19.7 55 9.34 10.4 26 35 1017.6 0 20.9 25.5 39.9 104.8 100.8 347.5
08/05 06:40 19.7 54 9.17 10.1 22 28 1017.5 0 20.5 25.3 39.3 103.1 98.6 340.0
08/05 06:30 19.8 53 9.05 10 24 35 1017.3 0 20.2 25.0 38.8 101.8 97.0 334.3
08/05 06:20 19.8 52 8.88 9.7 30 39 1017.1 0 19.9 24.8 38.1 100.0 94.9 326.9
08/05 06:10 19.9 53 9.11 10 32 43 1017 0 20.4 25.1 38.9 102.2 97.6 336.4
08/05 06:00 20.1 52 9.04 9.9 28 44 1016.9 0 20.2 24.9 38.6 101.2 96.5 332.5
08/05 05:50 20.1 52 9.04 9.9 26 41 1016.6 0 20.2 24.9 38.6 101.2 96.4 332.4
08/05 05:40 19.9 54 9.28 10.3 20 35 1016.6 0 20.7 25.3 39.6 103.9 99.7 343.7
08/05 05:30 20 55 9.5 10.7 24 37 1016.4 0 21.2 25.6 40.3 106.0 102.3 352.8
08/05 05:20 20.1 57 9.91 11.3 20 26 1016.3 0 22.0 26.3 41.9 110.0 107.3 370.5
08/05 05:10 20.2 56 9.79 11.1 22 33 1016.2 0 21.8 26.0 41.3 108.6 105.7 364.7
08/05 05:00 20.3 55 9.67 11 22 35 1016.1 0 21.5 25.8 40.8 107.3 104.0 358.9
08/05 04:50 20.5 55 9.79 11.2 20 32 1016 0 21.8 25.9 41.2 108.2 105.2 363.2
08/05 04:40 20.3 56 9.85 11.2 22 30 1016 0 21.9 26.1 41.5 109.1 106.3 366.8
08/05 04:30 20.3 56 9.85 11.2 20 33 1016 0 21.9 26.1 41.5 109.1 106.3 366.8
08/05 04:20 20.4 57 10.08 11.6 20 28 1015.9 0 22.4 26.4 42.3 111.3 109.0 376.5
08/05 04:10 20.6 56 10.02 11.5 19 22 1015.9 0 22.3 26.3 42.0 110.4 108.0 372.9
08/05 04:00 20.7 55 9.9 11.3 24 35 1015.8 0 22.0 26.0 41.5 109.0 106.3 367.1
08/05 03:50 20.6 58 10.38 12.1 22 28 1015.8 0 23.0 26.8 43.4 114.1 112.6 388.9
08/05 03:40 20.8 57 10.32 12 22 28 1015.9 0 22.9 26.7 43.1 113.2 111.5 385.3
08/05 03:30 20.8 59 10.68 12.5 22 37 1015.9 0 23.6 27.2 44.5 117.0 116.1 401.5
08/05 03:20 20.8 59 10.68 12.5 20 28 1015.7 0 23.6 27.2 44.5 117.0 116.1 401.4
08/05 03:10 20.8 60 10.86 12.8 20 30 1015.7 0 24.0 27.5 45.2 118.9 118.5 409.6
08/05 03:00 20.9 61 11.11 13.1 24 39 1015.6 0 24.5 27.9 46.1 121.3 121.6 420.4
08/05 02:50 21 63 11.54 13.7 24 39 1015.5 0 25.4 28.5 47.8 125.8 127.0 439.6
08/05 02:40 21.4 65 12.19 14.6 24 32 1015.6 0 26.8 29.5 50.2 132.2 135.0 467.6
08/05 02:30 21 71 13.01 15.5 22 35 1015.6 0 28.6 31.0 53.8 142.0 147.0 509.2
08/05 02:20 21.1 72 13.26 15.9 20 28 1015.6 0 29.1 31.4 54.8 144.6 150.3 520.6
08/05 02:10 21 75 13.74 16.4 22 26 1015.6 0 30.1 32.3 57.0 150.3 157.2 544.9
08/05 02:00 21.1 76 14 16.7 20 32 1015.6 0 30.7 32.7 58.0 153.1 160.7 557.1
08/05 01:50 20.5 85 15.12 17.9 17 24 1015.6 0 33.1 34.9 63.5 167.6 178.4 618.5
08/05 01:40 20.5 96 17.08 19.8 15 19 1015.6 0 37.3 38.6 72.6 192.0 208.3 722.8
08/05 01:30 20.3 97 17.06 19.8 13 17 1015.7 0 37.3 38.6 72.7 192.3 208.6 723.7
08/05 01:20 20.1 96 16.69 19.4 13 13 1015.7 0 36.5 38.0 71.2 188.1 203.3 705.4
08/05 01:10 20.1 96 16.69 19.4 11 13 1015.8 0 36.5 38.0 71.2 188.1 203.3 705.5
08/05 01:00 20.2 96 16.78 19.5 11 15 1015.8 0 36.7 38.2 71.5 189.0 204.5 709.4
08/05 00:50 20.2 96 16.78 19.5 11 13 1015.8 0 36.7 38.2 71.5 189.0 204.5 709.4
08/05 00:40 20.3 96 16.88 19.6 13 15 1015.8 0 36.9 38.3 71.9 190.0 205.8 713.9
08/05 00:30 20.4 96 16.98 19.7 11 15 1015.9 0 37.1 38.5 72.3 191.0 207.1 718.5
08/05 00:20 20.4 96 16.98 19.7 11 13 1015.9 0 37.1 38.5 72.3 191.0 207.1 718.5
08/05 00:10 20.5 96 17.08 19.8 11 11 1015.9 0 37.3 38.6 72.7 192.1 208.4 723.0
08/05 00:00 20.6 96 17.18 19.9 9 11 1015.9 0 37.5 38.7 73.0 193.1 209.6 727.5
07/05 23:50 20.7 96 17.28 20 11 11 1015.9 0 37.7 38.9 73.4 194.1 210.9 732.0
07/05 23:40 20.8 96 17.38 20.1 11 13 1016 0 37.9 39.0 73.8 195.1 212.2 736.5
07/05 23:30 20.9 96 17.48 20.2 9 13 1016 0 38.1 39.2 74.2 196.2 213.5 741.0
07/05 23:20 21.1 96 17.69 20.4 11 13 1016.2 0 38.5 39.5 75.0 198.4 216.3 750.7
07/05 23:10 21.2 96 17.79 20.5 11 13 1016.2 0 38.7 39.7 75.4 199.4 217.6 755.2
07/05 23:00 21.2 96 17.79 20.5 9 11 1016.2 0 38.7 39.7 75.4 199.4 217.6 755.2
07/05 22:50 21.3 96 17.89 20.6 11 11 1016.2 0 39.0 39.8 75.8 200.4 218.9 759.7
07/05 22:40 21.3 95 17.71 20.5 11 11 1016.2 0 38.6 39.5 74.9 198.1 216.0 749.8
07/05 22:30 21.4 95 17.81 20.6 9 11 1016.4 0 38.8 39.6 75.3 199.2 217.4 754.4
07/05 22:20 21.5 95 17.91 20.7 9 11 1016.4 0 39.0 39.8 75.7 200.2 218.6 758.9
07/05 22:10 21.6 94 17.83 20.6 11 11 1016.4 0 38.8 39.6 75.2 198.9 217.1 753.5
07/05 22:00 21.8 94 18.03 20.8 9 13 1016.4 0 39.2 39.9 76.0 200.9 219.7 762.5
07/05 21:50 22.1 93 18.15 20.9 9 11 1016.4 0 39.4 39.9 76.3 201.7 220.7 766.0
07/05 21:40 22.3 93 18.36 21.1 7 7 1016.5 0 39.9 40.3 77.1 203.9 223.4 775.5
07/05 21:30 22.4 92 18.27 21 6 7 1016.5 0 39.7 40.0 76.6 202.4 221.7 769.6
07/05 21:20 22.5 92 18.37 21.1 6 7 1016.5 0 39.9 40.2 76.9 203.4 223.0 774.0
07/05 21:10 22.8 91 18.49 21.3 6 6 1016.6 0 40.1 40.3 77.2 204.2 224.0 777.6
07/05 21:00 23.1 90 18.6 21.4 6 9 1016.5 0 40.3 40.3 77.4 204.8 224.8 780.4
07/05 20:50 23.3 89 18.61 21.4 0 2 1016.5 0 40.3 40.3 77.3 204.4 224.3 778.9
07/05 20:40 23.4 89 18.71 21.5 6 9 1016.5 0 40.5 40.4 77.7 205.4 225.6 783.3
07/05 20:30 23.6 89 18.93 21.7 7 11 1016.5 0 40.9 40.7 78.5 207.6 228.4 793.3
07/05 20:20 23.7 89 19.04 21.8 7 9 1016.5 0 41.2 40.9 78.9 208.8 229.9 798.3
07/05 20:10 23.7 89 19.04 21.8 7 9 1016.4 0 41.2 40.9 78.9 208.8 229.9 798.2
07/05 20:00 23.7 87 18.61 21.4 9 13 1016.2 0 40.2 40.0 76.8 203.2 223.1 774.6
07/05 19:50 23.7 87 18.61 21.4 9 13 1016.2 0 40.2 40.0 76.8 203.2 223.1 774.6
07/05 19:40 23.7 87 18.61 21.4 9 13 1016 0 40.2 40.0 76.8 203.2 223.0 774.5
07/05 19:30 23.6 87 18.5 21.3 9 11 1015.9 0 40.0 39.9 76.4 202.1 221.6 769.5
07/05 19:20 23.6 87 18.5 21.3 7 9 1015.9 0 40.0 39.9 76.4 202.1 221.6 769.5
07/05 19:10 23.6 86 18.29 21.1 7 9 1015.7 0 39.6 39.5 75.4 199.4 218.3 758.1
07/05 19:00 23.5 86 18.19 21 6 11 1015.5 0 39.4 39.3 75.0 198.3 217.0 753.6
07/05 18:50 23.5 86 18.19 21 4 9 1015.4 0 39.4 39.3 75.0 198.3 217.0 753.5
07/05 18:40 23.7 86 18.39 21.2 7 7 1015.2 0 39.8 39.6 75.7 200.3 219.5 762.2
07/05 18:30 23.7 85 18.18 21 9 15 1015.1 0 39.3 39.2 74.7 197.6 216.2 750.8
07/05 18:20 23.7 86 18.39 21.2 7 9 1014.9 0 39.8 39.6 75.7 200.2 219.5 762.0
07/05 18:10 23.6 85 18.08 20.9 9 11 1014.8 0 39.1 39.0 74.3 196.6 214.9 746.3
07/05 18:00 23.7 85 18.18 21 7 11 1014.8 0 39.3 39.2 74.7 197.6 216.2 750.7
07/05 17:50 23.7 84 17.97 20.8 7 9 1014.7 0 38.9 38.8 73.7 194.9 212.9 739.4
07/05 17:40 23.7 83 17.75 20.6 9 13 1014.6 0 38.4 38.3 72.7 192.2 209.6 727.6
07/05 17:30 23.8 84 18.07 20.9 9 15 1014.5 0 39.1 38.9 74.1 195.9 214.2 743.7
07/05 17:20 24 83 18.06 20.9 9 11 1014.4 0 39.1 38.8 73.8 195.2 213.4 741.1
07/05 17:10 24.2 83 18.26 21.1 6 7 1014.3 0 39.5 39.1 74.6 197.2 215.9 749.7
07/05 17:00 24.2 82 18.04 20.9 9 15 1014.2 0 39.0 38.6 73.5 194.4 212.5 738.0
07/05 16:50 24.4 83 18.47 21.3 11 13 1014.1 0 39.9 39.4 75.3 199.3 218.5 758.9
07/05 16:40 24.6 83 18.68 21.5 11 15 1013.9 0 40.3 39.7 76.1 201.3 221.1 768.0
07/05 16:30 24.7 82 18.56 21.4 11 19 1013.8 0 40.1 39.4 75.5 199.6 219.0 760.5
07/05 16:20 25 82 18.88 21.7 9 11 1013.8 0 40.7 39.8 76.7 202.8 223.0 774.6
07/05 16:10 24.9 80 18.31 21.2 13 19 1013.7 0 39.5 38.8 74.1 195.9 214.6 745.2
07/05 16:00 25.1 80 18.52 21.4 13 20 1013.6 0 39.9 39.1 74.9 198.0 217.2 754.3
07/05 15:50 25.3 82 19.2 22 7 9 1013.6 0 41.4 40.3 77.9 206.0 227.0 788.5
07/05 15:40 25.2 80 18.62 21.5 13 17 1013.7 0 40.1 39.2 75.2 199.0 218.4 758.6
07/05 15:30 25.2 80 18.62 21.5 15 22 1013.6 0 40.1 39.2 75.2 199.0 218.4 758.6
07/05 15:20 25.3 80 18.73 21.6 13 17 1013.7 0 40.4 39.4 75.6 200.1 219.8 763.5
07/05 15:10 25.4 79 18.6 21.5 15 24 1013.6 0 40.1 39.1 74.9 198.2 217.5 755.5
07/05 15:00 25.4 81 19.07 21.9 13 20 1013.6 0 41.1 40.0 77.1 204.1 224.7 780.5
07/05 14:50 25.5 80 18.94 21.8 13 15 1013.5 0 40.8 39.7 76.4 202.1 222.4 772.5
07/05 14:40 25.4 79 18.6 21.5 15 30 1013.5 0 40.1 39.1 74.9 198.2 217.5 755.5
07/05 14:30 25.3 80 18.73 21.6 17 24 1013.4 0 40.4 39.4 75.6 200.0 219.8 763.3

Last Refresh: 08-May-2026 06:34:09

Bureau of Meteorology